EKVJ/STA METAR and TAF weather

Enter ICAO airport designator
Station Type Date Time Source
EKVJ METAR 2021/10/22 12:50 UTC NOAA

EKVJ 221250Z 32014G24KT 9999 VCSH FEW020 FEW024CB 10/05 Q1001


Station Type Date Time Source
EKVJ Decoded METAR 2021/10/22 12:50 UTC NOAA

Stauning Lufthavn, Denmark (EKVJ) 56-00N 008-21E 5M
Oct 22, 2021 - 08:50 AM EDT / 2021.10.22 1250 UTC
Wind: from the NW (320 degrees) at 16 MPH (14 KT) gusting to 28 MPH (24 KT):0
Visibility: greater than 7 mile(s):0
Sky conditions: mostly clear
Weather: showers in the vicinity; Cumulonimbus clouds observed
Temperature: 50 F (10 C)
Dew Point: 41 F (5 C)
Relative Humidity: 71%
Pressure (altimeter): 29.56 in. Hg (1001 hPa)
ob: EKVJ 221250Z 32014G24KT 9999 VCSH FEW020 FEW024CB 10/05 Q1001
cycle: 13

Station Type Date Time Source
EKVJ TAF UTC NOAA

Error!

Example: see airport list